createdAt,value
2019-03-18T00:01:45.528Z,87.29
2019-03-18T00:04:48.608Z,87.76
2019-03-18T00:07:51.804Z,87.85
2019-03-18T00:10:55.002Z,87.27
2019-03-18T00:13:58.213Z,87.87
2019-03-18T00:17:01.379Z,87.70
2019-03-18T00:20:04.739Z,87.96
2019-03-18T00:23:07.875Z,88.01
2019-03-18T00:26:11.074Z,87.31
2019-03-18T00:29:14.365Z,88.12
2019-03-18T00:32:17.456Z,87.79
2019-03-18T00:35:20.647Z,87.44
2019-03-18T00:38:23.849Z,87.42
2019-03-18T00:41:27.053Z,87.36
2019-03-18T00:44:30.253Z,86.99
2019-03-18T00:47:33.436Z,86.93
2019-03-18T00:50:36.631Z,86.74
2019-03-18T00:53:39.815Z,86.36
2019-03-18T00:56:43.023Z,86.23
2019-03-18T00:59:46.204Z,86.02
2019-03-18T01:02:50.038Z,85.46
2019-03-18T01:05:52.591Z,85.60
2019-03-18T01:08:55.695Z,85.71
2019-03-18T01:11:58.977Z,85.44
2019-03-18T01:15:02.178Z,85.29
2019-03-18T01:18:05.363Z,85.44
2019-03-18T01:21:08.450Z,85.79
2019-03-18T01:24:11.575Z,85.83
2019-03-18T01:27:14.748Z,85.88
2019-03-18T01:30:17.988Z,85.74
2019-03-18T01:33:21.482Z,86.12
2019-03-18T01:36:24.623Z,85.94
2019-03-18T01:39:27.723Z,86.26
2019-03-18T01:42:30.825Z,86.10
2019-03-18T01:45:40.545Z,86.58
2019-03-18T01:48:37.196Z,86.08
2019-03-18T01:51:40.304Z,86.18
2019-03-18T01:54:43.508Z,86.29
2019-03-18T01:57:46.684Z,86.64
2019-03-18T02:00:49.892Z,86.21
2019-03-18T02:03:53.083Z,86.28
2019-03-18T02:06:56.372Z,86.37
2019-03-18T02:09:59.580Z,86.84
2019-03-18T02:13:02.787Z,86.47
2019-03-18T02:16:05.968Z,86.67
2019-03-18T02:19:09.151Z,86.55
2019-03-18T02:22:12.352Z,86.92
2019-03-18T02:25:15.569Z,86.33
2019-03-18T02:28:18.740Z,86.60
2019-03-18T02:31:21.950Z,86.74
2019-03-18T02:34:25.161Z,86.49
2019-03-18T02:37:28.352Z,86.36
2019-03-18T02:40:31.604Z,86.53
2019-03-18T02:43:34.743Z,86.14
2019-03-18T02:46:37.891Z,86.06
2019-03-18T02:49:41.021Z,86.48
2019-03-18T02:52:44.181Z,86.42
2019-03-18T02:55:47.377Z,86.85
2019-03-18T02:58:50.504Z,86.72
2019-03-18T03:01:53.678Z,86.80
2019-03-18T03:04:56.768Z,86.66
2019-03-18T03:07:59.959Z,87.03
2019-03-18T03:11:03.162Z,87.09
2019-03-18T03:14:06.350Z,86.82
2019-03-18T03:17:09.459Z,86.99
2019-03-18T03:20:12.663Z,86.87
2019-03-18T03:23:15.832Z,86.55
2019-03-18T03:26:19.012Z,86.97
2019-03-18T03:29:22.238Z,87.16
2019-03-18T03:32:25.424Z,87.44
2019-03-18T03:35:28.625Z,87.87
2019-03-18T03:38:31.821Z,87.72
2019-03-18T03:41:35.001Z,87.72
2019-03-18T03:44:38.085Z,87.53
2019-03-18T03:47:41.176Z,87.62
2019-03-18T03:50:44.393Z,87.72
2019-03-18T03:53:47.561Z,87.38
2019-03-18T03:56:50.660Z,87.32
2019-03-18T03:59:53.799Z,87.01
2019-03-18T04:02:56.943Z,87.11
2019-03-18T04:06:00.196Z,87.18
2019-03-18T04:09:03.826Z,87.30
2019-03-18T04:12:06.955Z,86.70
2019-03-18T04:15:10.131Z,87.31
2019-03-18T04:18:13.340Z,87.22
2019-03-18T04:21:16.516Z,87.64
2019-03-18T04:24:19.620Z,87.59
2019-03-18T04:27:24.761Z,87.34
2019-03-18T04:30:25.895Z,87.99
2019-03-18T04:33:28.983Z,87.35
2019-03-18T04:36:32.097Z,87.49
2019-03-18T04:39:35.295Z,86.41
2019-03-18T04:42:38.379Z,86.40
2019-03-18T04:45:42.179Z,86.69
2019-03-18T04:48:45.051Z,86.85
2019-03-18T04:51:48.147Z,87.09
2019-03-18T04:54:51.246Z,87.52
2019-03-18T04:57:54.438Z,86.89
2019-03-18T05:00:57.659Z,86.86
2019-03-18T05:04:00.775Z,86.38
2019-03-18T05:07:03.923Z,86.02
2019-03-18T05:10:07.172Z,86.28
2019-03-18T05:13:10.324Z,86.24
2019-03-18T05:16:13.499Z,86.40
2019-03-18T05:19:16.696Z,86.43
2019-03-18T05:22:19.787Z,86.03
2019-03-18T05:25:22.983Z,86.32
2019-03-18T05:28:26.185Z,86.06
2019-03-18T05:31:29.412Z,86.37
2019-03-18T05:34:33.187Z,86.65
2019-03-18T05:37:36.501Z,86.63
2019-03-18T05:40:39.724Z,86.59
2019-03-18T05:43:42.863Z,86.93
2019-03-18T05:46:46.060Z,86.65
2019-03-18T05:49:49.265Z,86.72
2019-03-18T05:52:52.447Z,86.77
2019-03-18T05:55:55.615Z,86.81
2019-03-18T05:58:58.754Z,86.84
2019-03-18T06:02:02.020Z,86.82
2019-03-18T06:05:06.033Z,86.23
2019-03-18T06:08:11.519Z,85.76
2019-03-18T06:11:12.353Z,85.65
2019-03-18T06:14:15.537Z,85.31
2019-03-18T06:17:19.453Z,84.70
2019-03-18T06:20:22.645Z,83.24
2019-03-18T06:23:25.815Z,82.66
2019-03-18T06:26:29.032Z,82.33
2019-03-18T06:29:32.332Z,81.69
2019-03-18T06:32:35.527Z,81.08
2019-03-18T06:35:38.704Z,80.37
2019-03-18T06:38:42.004Z,80.18
2019-03-18T06:41:45.226Z,80.19
2019-03-18T06:44:48.491Z,79.29
2019-03-18T06:48:03.781Z,79.65
2019-03-18T06:50:54.880Z,79.42
2019-03-18T06:53:58.095Z,79.39
2019-03-18T06:57:01.300Z,79.28
2019-03-18T07:00:06.945Z,79.38
2019-03-18T07:03:08.585Z,79.06
2019-03-18T07:06:11.891Z,78.75
2019-03-18T07:09:15.091Z,78.93
2019-03-18T07:12:18.331Z,78.30
2019-03-18T07:15:21.477Z,78.19
2019-03-18T07:18:24.644Z,78.44
2019-03-18T07:21:27.852Z,77.70
2019-03-18T07:24:31.063Z,77.67
2019-03-18T07:27:34.264Z,77.78
2019-03-18T07:30:37.523Z,78.09
2019-03-18T07:33:40.762Z,77.64
2019-03-18T07:36:43.970Z,77.20
2019-03-18T07:39:47.164Z,76.75
2019-03-18T07:42:50.312Z,76.22
2019-03-18T07:45:53.589Z,76.26
2019-03-18T07:48:56.740Z,76.17
2019-03-18T07:52:00.015Z,76.75
2019-03-18T07:55:03.213Z,76.63
2019-03-18T07:58:06.425Z,76.81
2019-03-18T08:01:09.620Z,76.02
2019-03-18T08:04:12.773Z,77.00
2019-03-18T08:07:15.978Z,76.58
2019-03-18T08:10:19.180Z,75.69
2019-03-18T08:13:22.264Z,75.13
2019-03-18T08:16:25.360Z,76.01
2019-03-18T08:19:28.687Z,75.21
2019-03-18T08:22:31.853Z,75.20
2019-03-18T08:25:35.028Z,74.25
2019-03-18T08:28:38.240Z,74.46
2019-03-18T08:31:41.523Z,74.96
2019-03-18T08:34:45.641Z,73.16
2019-03-18T08:37:48.843Z,72.79
2019-03-18T08:40:52.030Z,72.99
2019-03-18T08:43:55.235Z,72.60
2019-03-18T08:46:58.788Z,71.98
2019-03-18T08:50:01.933Z,71.29
2019-03-18T08:53:05.123Z,70.32
2019-03-18T08:56:08.413Z,70.30
2019-03-18T08:59:11.609Z,71.48
2019-03-18T09:02:14.860Z,71.42
2019-03-18T09:05:18.080Z,71.95
2019-03-18T09:08:21.198Z,71.96
2019-03-18T09:11:24.371Z,71.29
2019-03-18T09:14:27.620Z,70.55
2019-03-18T09:17:30.788Z,70.68
2019-03-18T09:20:33.894Z,69.87
2019-03-18T09:23:37.047Z,70.20
2019-03-18T09:26:40.270Z,71.14
2019-03-18T09:29:43.548Z,69.63
2019-03-18T09:32:46.769Z,69.00
2019-03-18T09:35:50.031Z,68.09
2019-03-18T09:38:53.138Z,68.39
2019-03-18T09:41:56.353Z,68.93
2019-03-18T09:44:59.551Z,69.12
2019-03-18T09:48:02.858Z,69.74
2019-03-18T09:51:06.025Z,69.20
2019-03-18T09:54:09.274Z,69.05
2019-03-18T09:57:25.098Z,68.31
2019-03-18T10:00:15.915Z,66.14
2019-03-18T10:03:19.100Z,65.09
2019-03-18T10:06:22.296Z,64.70
2019-03-18T10:09:25.487Z,64.74
2019-03-18T10:12:28.628Z,65.18
2019-03-18T10:15:31.805Z,65.34
2019-03-18T10:18:34.875Z,65.67
2019-03-18T10:21:38.075Z,64.71
2019-03-18T10:24:41.269Z,64.36
2019-03-18T10:27:44.448Z,63.60
2019-03-18T10:30:47.684Z,64.50
2019-03-18T10:33:50.840Z,64.46
2019-03-18T10:36:54.058Z,64.82
2019-03-18T10:39:57.216Z,65.58
2019-03-18T10:43:00.297Z,66.02
2019-03-18T10:46:03.521Z,69.22
2019-03-18T10:49:06.634Z,70.62
2019-03-18T10:52:09.825Z,72.24
2019-03-18T10:55:13.008Z,72.82
2019-03-18T10:58:18.115Z,71.60
2019-03-18T11:01:19.375Z,70.48
2019-03-18T11:04:22.502Z,72.27
2019-03-18T11:07:25.561Z,73.05
2019-03-18T11:10:28.664Z,73.01
2019-03-18T11:13:31.856Z,75.60
2019-03-18T11:16:35.037Z,75.48
2019-03-18T11:19:38.135Z,77.46
2019-03-18T11:22:41.223Z,76.86
2019-03-18T11:25:44.316Z,75.33
2019-03-18T11:28:47.403Z,76.36
2019-03-18T11:31:50.496Z,72.25
2019-03-18T11:34:53.591Z,72.85
2019-03-18T11:37:56.695Z,70.94
2019-03-18T11:40:59.924Z,69.17
2019-03-18T11:44:03.028Z,69.26
2019-03-18T11:47:06.175Z,66.91
2019-03-18T11:50:11.648Z,65.11
2019-03-18T11:53:14.539Z,65.08
2019-03-18T11:56:16.724Z,62.53
2019-03-18T11:59:21.136Z,62.41
2019-03-18T12:02:27.864Z,61.12
2019-03-18T12:05:26.581Z,59.65
2019-03-18T12:08:29.820Z,60.56
2019-03-18T12:11:32.960Z,58.37
2019-03-18T12:14:36.156Z,59.05
2019-03-18T12:17:39.394Z,58.44
2019-03-18T12:20:42.682Z,60.16
2019-03-18T12:23:45.835Z,59.82
2019-03-18T12:26:49.289Z,58.80
2019-03-18T12:29:52.231Z,58.13
2019-03-18T12:32:55.440Z,58.54
2019-03-18T12:35:58.625Z,59.66
2019-03-18T12:39:01.815Z,60.19
2019-03-18T12:42:05.017Z,60.87
2019-03-18T12:45:09.497Z,61.60
2019-03-18T12:48:12.644Z,60.99
2019-03-18T12:51:15.821Z,60.53
2019-03-18T12:54:19.008Z,57.14
2019-03-18T12:57:22.096Z,56.63
2019-03-18T13:00:25.923Z,60.40
2019-03-18T13:03:29.505Z,61.40
2019-03-18T13:06:33.647Z,61.74
2019-03-18T13:09:35.703Z,61.09
2019-03-18T13:12:38.909Z,59.42
2019-03-18T13:15:42.108Z,59.08
2019-03-18T13:18:45.284Z,59.79
2019-03-18T13:21:48.451Z,58.35
2019-03-18T13:24:51.564Z,55.51
2019-03-18T13:27:54.816Z,56.34
2019-03-18T13:30:57.968Z,56.04
2019-03-18T13:34:01.174Z,55.61
2019-03-18T13:37:04.447Z,54.94
2019-03-18T13:40:08.569Z,53.23
2019-03-18T13:43:11.861Z,54.55
2019-03-18T13:46:15.075Z,54.06
2019-03-18T13:49:18.268Z,54.31
2019-03-18T13:52:21.459Z,54.63
2019-03-18T13:55:24.670Z,54.70
2019-03-18T13:58:27.843Z,54.48
2019-03-18T14:01:31.046Z,54.95
2019-03-18T14:04:34.233Z,55.06
2019-03-18T14:07:37.448Z,54.57
2019-03-18T14:10:40.560Z,52.65
2019-03-18T14:13:43.720Z,52.44
2019-03-18T14:16:46.902Z,52.38
2019-03-18T14:19:50.117Z,52.83
2019-03-18T14:22:53.294Z,52.80
2019-03-18T14:25:56.490Z,51.55
2019-03-18T14:28:59.681Z,52.43
2019-03-18T14:32:03.822Z,52.11
2019-03-18T14:35:07.286Z,52.34
2019-03-18T14:38:10.384Z,52.94
2019-03-18T14:41:13.495Z,52.29
2019-03-18T14:44:16.592Z,51.90
2019-03-18T14:47:19.828Z,51.09
2019-03-18T14:50:23.072Z,53.94
2019-03-18T14:53:26.178Z,57.31
2019-03-18T14:56:29.360Z,61.10
2019-03-18T14:59:32.559Z,64.61
2019-03-18T15:02:35.747Z,68.83
2019-03-18T15:05:38.949Z,69.21
2019-03-18T15:08:42.144Z,68.87
2019-03-18T15:11:45.437Z,69.10
2019-03-18T15:14:48.644Z,66.98
2019-03-18T15:17:53.295Z,67.46
2019-03-18T15:20:57.569Z,65.65
2019-03-18T15:24:00.695Z,66.18
2019-03-18T15:27:03.935Z,62.54
2019-03-18T15:30:09.090Z,61.33
2019-03-18T15:33:12.272Z,59.27
2019-03-18T15:36:15.467Z,57.91
2019-03-18T15:39:18.639Z,57.27
2019-03-18T15:42:23.337Z,56.80
2019-03-18T15:45:26.867Z,55.25
2019-03-18T15:48:30.045Z,56.84
2019-03-18T15:51:33.304Z,57.19
2019-03-18T15:54:36.459Z,56.91
2019-03-18T15:57:40.611Z,56.99
2019-03-18T16:00:43.728Z,55.13
2019-03-18T16:03:46.933Z,54.54
2019-03-18T16:06:50.045Z,54.27
2019-03-18T16:09:53.218Z,54.68
2019-03-18T16:12:56.534Z,56.72
2019-03-18T16:16:00.067Z,58.47
2019-03-18T16:19:03.201Z,60.79
2019-03-18T16:22:06.395Z,62.39
2019-03-18T16:25:09.626Z,63.20
2019-03-18T16:28:12.776Z,64.63
2019-03-18T16:31:15.960Z,66.12
2019-03-18T16:34:19.067Z,67.14
2019-03-18T16:37:22.252Z,65.89
2019-03-18T16:40:25.452Z,62.47
2019-03-18T16:43:28.532Z,63.04
2019-03-18T16:46:31.664Z,63.27
2019-03-18T16:49:35.244Z,63.10
2019-03-18T16:52:42.855Z,62.43
2019-03-18T16:55:46.612Z,62.69
2019-03-18T16:58:49.750Z,62.16
2019-03-18T17:01:52.966Z,61.91
2019-03-18T17:04:56.115Z,62.47
2019-03-18T17:07:59.220Z,61.90
2019-03-18T17:11:03.290Z,62.88
2019-03-18T17:14:06.443Z,62.64
2019-03-18T17:17:09.614Z,63.34
2019-03-18T17:20:12.824Z,63.66
2019-03-18T17:23:16.010Z,63.46
2019-03-18T17:26:19.193Z,63.10
2019-03-18T17:29:22.349Z,63.09
2019-03-18T17:32:25.594Z,63.14
2019-03-18T17:35:28.679Z,62.67
2019-03-18T17:38:31.896Z,62.29
2019-03-18T17:41:35.068Z,61.79
2019-03-18T17:44:38.164Z,62.33
2019-03-18T17:47:41.367Z,63.27
2019-03-18T17:50:44.464Z,63.60
2019-03-18T17:53:47.663Z,63.70
2019-03-18T17:56:50.828Z,63.54
2019-03-18T17:59:53.958Z,64.14
2019-03-18T18:02:57.160Z,65.31
2019-03-18T18:06:00.316Z,67.49
2019-03-18T18:09:03.611Z,68.43
2019-03-18T18:12:06.715Z,69.19
2019-03-18T18:15:09.864Z,70.15
2019-03-18T18:18:13.020Z,70.87
2019-03-18T18:21:16.196Z,71.92
2019-03-18T18:24:19.372Z,72.45
2019-03-18T18:27:22.471Z,71.99
2019-03-18T18:30:25.680Z,72.98
2019-03-18T18:33:28.764Z,73.53
2019-03-18T18:36:31.966Z,74.27
2019-03-18T18:39:35.182Z,75.02
2019-03-18T18:42:38.312Z,74.58
2019-03-18T18:45:41.468Z,75.64
2019-03-18T18:48:44.664Z,76.02
2019-03-18T18:51:47.848Z,77.45
2019-03-18T18:54:51.035Z,77.60
2019-03-18T18:57:54.227Z,78.01
2019-03-18T19:00:57.312Z,78.01
2019-03-18T19:04:00.542Z,78.73
2019-03-18T19:07:03.805Z,78.54
2019-03-18T19:10:07.682Z,79.11
2019-03-18T19:13:10.824Z,79.45
2019-03-18T19:16:14.002Z,79.01
2019-03-18T19:19:17.197Z,78.55
2019-03-18T19:22:20.508Z,79.43
2019-03-18T19:25:23.776Z,78.85
2019-03-18T19:28:26.977Z,79.07
2019-03-18T19:31:30.197Z,79.05
2019-03-18T19:34:33.372Z,78.92
2019-03-18T19:37:36.596Z,78.86
2019-03-18T19:40:39.727Z,79.14
2019-03-18T19:43:42.856Z,78.86
2019-03-18T19:46:46.052Z,78.78
2019-03-18T19:49:49.244Z,79.72
2019-03-18T19:52:52.787Z,80.27
2019-03-18T19:55:55.948Z,82.25
2019-03-18T19:58:59.160Z,83.40
2019-03-18T20:02:02.345Z,82.72
2019-03-18T20:05:14.579Z,82.85
2019-03-18T20:08:09.120Z,81.62
2019-03-18T20:11:12.236Z,81.83
2019-03-18T20:14:15.405Z,82.31
2019-03-18T20:17:18.620Z,82.97
2019-03-18T20:20:21.704Z,83.55
2019-03-18T20:23:24.968Z,83.49
2019-03-18T20:26:30.240Z,83.29
2019-03-18T20:29:31.403Z,83.55
2019-03-18T20:32:34.636Z,83.66
2019-03-18T20:35:37.787Z,83.57
2019-03-18T20:38:40.974Z,83.34
2019-03-18T20:41:44.163Z,82.89
2019-03-18T20:44:47.367Z,82.39
2019-03-18T20:47:50.567Z,82.73
2019-03-18T20:50:53.763Z,82.75
2019-03-18T20:53:56.951Z,82.08
2019-03-18T20:57:00.140Z,81.44
2019-03-18T21:00:03.454Z,81.76
2019-03-18T21:03:06.644Z,81.92
2019-03-18T21:06:09.816Z,80.73
2019-03-18T21:09:12.908Z,80.89
2019-03-18T21:12:16.003Z,80.53
2019-03-18T21:15:19.111Z,81.64
2019-03-18T21:18:22.291Z,81.46
2019-03-18T21:21:25.396Z,81.32
2019-03-18T21:24:28.579Z,81.93
2019-03-18T21:27:31.789Z,81.89
2019-03-18T21:30:34.984Z,82.29
2019-03-18T21:33:38.067Z,81.57
2019-03-18T21:36:41.261Z,82.40
2019-03-18T21:39:44.356Z,82.84
2019-03-18T21:42:47.594Z,82.32
2019-03-18T21:45:50.724Z,82.52
2019-03-18T21:48:53.825Z,82.92
2019-03-18T21:51:56.951Z,82.24
2019-03-18T21:55:00.116Z,81.92
2019-03-18T21:58:03.209Z,81.94
2019-03-18T22:01:06.395Z,81.75
2019-03-18T22:04:09.507Z,80.39
2019-03-18T22:07:12.677Z,81.41
2019-03-18T22:10:15.815Z,81.59
2019-03-18T22:13:18.980Z,81.81
2019-03-18T22:16:22.113Z,81.68
2019-03-18T22:19:25.289Z,81.51
2019-03-18T22:22:28.454Z,81.72
2019-03-18T22:25:31.660Z,82.29
2019-03-18T22:28:34.911Z,81.97
2019-03-18T22:31:38.437Z,81.92
2019-03-18T22:34:41.560Z,81.57
2019-03-18T22:37:44.844Z,81.82
2019-03-18T22:40:48.040Z,81.79
2019-03-18T22:43:51.226Z,81.16
2019-03-18T22:46:54.321Z,82.37
2019-03-18T22:49:57.521Z,82.47
2019-03-18T22:53:00.718Z,82.03
2019-03-18T22:56:03.896Z,82.09
2019-03-18T22:59:06.991Z,81.91
2019-03-18T23:02:10.102Z,82.07
2019-03-18T23:05:14.325Z,82.11
2019-03-18T23:08:17.512Z,81.98
2019-03-18T23:11:20.695Z,81.87
2019-03-18T23:14:23.877Z,82.12
2019-03-18T23:17:26.971Z,81.85
2019-03-18T23:20:30.177Z,82.17
2019-03-18T23:23:33.369Z,82.85
2019-03-18T23:26:36.558Z,82.69
2019-03-18T23:29:39.664Z,83.30
2019-03-18T23:32:42.844Z,82.66
2019-03-18T23:35:45.950Z,82.59
2019-03-18T23:38:49.130Z,82.69
2019-03-18T23:41:52.221Z,82.57
2019-03-18T23:44:55.420Z,81.83
2019-03-18T23:47:58.515Z,81.33
2019-03-18T23:51:01.611Z,81.93
2019-03-18T23:54:04.848Z,81.99
2019-03-18T23:57:08.003Z,82.84
